Weather at Air Park Dallas Airport

Public forecast

Using degrees Fahrenheit for public forecast. Weather courtesy of forecast.io.

Closest aviation weather report (METAR) to Air Park Dallas Airport

Closest report is Addison Airport, 3.3 nm (6.1 km) S. Retrieved 2021/01/28 09:35 UTC (1 hour ago):

KADS 280935Z AUTO 06008KT 10SM CLR 00/M04 A3056 RMK AO2 T00001038

Closest aviation forecast (TAF) to Air Park Dallas Airport

Closest forecast is Dallas Love Field, 10.6 nm (19.7 km) S. Retrieved 2021/01/28 06:22 UTC (4 hours ago):

TAF KDAL 280520Z 2806/2906 02004KT P6SM SCT250 FM281500 08004KT P6SM BKN250 FM281700 11004KT P6SM BKN250